sensor_id;sensor_type;location;lat;lon;timestamp;P1;durP1;ratioP1;P2;durP2;ratioP2
1545;SDS011;766;51.502;9.752;2024-01-16T00:02:27;11.77;;;4.03;;
1545;SDS011;766;51.502;9.752;2024-01-16T00:04:56;11.45;;;3.90;;
1545;SDS011;766;51.502;9.752;2024-01-16T00:07:24;11.07;;;3.28;;
1545;SDS011;766;51.502;9.752;2024-01-16T00:09:52;9.55;;;3.78;;
1545;SDS011;766;51.502;9.752;2024-01-16T00:12:21;7.75;;;3.97;;
1545;SDS011;766;51.502;9.752;2024-01-16T00:14:50;5.70;;;3.85;;
1545;SDS011;766;51.502;9.752;2024-01-16T00:17:18;6.45;;;3.42;;
1545;SDS011;766;51.502;9.752;2024-01-16T00:19:46;16.70;;;4.15;;
1545;SDS011;766;51.502;9.752;2024-01-16T00:22:14;11.10;;;3.88;;
1545;SDS011;766;51.502;9.752;2024-01-16T00:24:42;8.57;;;3.58;;
1545;SDS011;766;51.502;9.752;2024-01-16T00:27:10;10.02;;;3.60;;
1545;SDS011;766;51.502;9.752;2024-01-16T00:29:40;6.18;;;3.63;;
1545;SDS011;766;51.502;9.752;2024-01-16T00:32:08;7.20;;;3.70;;
1545;SDS011;766;51.502;9.752;2024-01-16T00:34:36;10.35;;;4.15;;
1545;SDS011;766;51.502;9.752;2024-01-16T00:37:04;10.20;;;3.47;;
1545;SDS011;766;51.502;9.752;2024-01-16T00:39:33;8.98;;;3.00;;
1545;SDS011;766;51.502;9.752;2024-01-16T00:42:01;4.60;;;3.08;;
1545;SDS011;766;51.502;9.752;2024-01-16T00:44:29;11.82;;;3.22;;
1545;SDS011;766;51.502;9.752;2024-01-16T00:46:59;4.72;;;2.63;;
1545;SDS011;766;51.502;9.752;2024-01-16T00:49:28;7.28;;;4.25;;
1545;SDS011;766;51.502;9.752;2024-01-16T00:51:56;14.85;;;3.90;;
1545;SDS011;766;51.502;9.752;2024-01-16T00:54:25;10.32;;;3.88;;
1545;SDS011;766;51.502;9.752;2024-01-16T00:56:53;7.82;;;4.38;;
1545;SDS011;766;51.502;9.752;2024-01-16T00:59:25;9.50;;;3.20;;
1545;SDS011;766;51.502;9.752;2024-01-16T01:01:54;11.60;;;3.90;;
1545;SDS011;766;51.502;9.752;2024-01-16T01:04:23;8.07;;;3.63;;
1545;SDS011;766;51.502;9.752;2024-01-16T01:06:51;11.85;;;3.80;;
1545;SDS011;766;51.502;9.752;2024-01-16T01:09:20;10.57;;;4.22;;
1545;SDS011;766;51.502;9.752;2024-01-16T01:11:48;9.60;;;3.85;;
1545;SDS011;766;51.502;9.752;2024-01-16T01:14:16;7.43;;;3.80;;
1545;SDS011;766;51.502;9.752;2024-01-16T01:16:45;5.38;;;3.55;;
1545;SDS011;766;51.502;9.752;2024-01-16T01:19:13;8.88;;;3.58;;
1545;SDS011;766;51.502;9.752;2024-01-16T01:21:42;10.32;;;3.72;;
1545;SDS011;766;51.502;9.752;2024-01-16T01:24:11;10.60;;;3.40;;
1545;SDS011;766;51.502;9.752;2024-01-16T01:26:39;7.57;;;3.88;;
1545;SDS011;766;51.502;9.752;2024-01-16T01:29:10;6.95;;;4.43;;
1545;SDS011;766;51.502;9.752;2024-01-16T01:31:38;9.13;;;3.88;;
1545;SDS011;766;51.502;9.752;2024-01-16T01:34:07;8.13;;;3.75;;
1545;SDS011;766;51.502;9.752;2024-01-16T01:36:35;10.05;;;3.85;;
1545;SDS011;766;51.502;9.752;2024-01-16T01:39:04;11.85;;;4.07;;
1545;SDS011;766;51.502;9.752;2024-01-16T01:41:33;7.88;;;3.58;;
1545;SDS011;766;51.502;9.752;2024-01-16T01:44:01;8.02;;;3.85;;
1545;SDS011;766;51.502;9.752;2024-01-16T01:46:29;11.63;;;4.38;;
1545;SDS011;766;51.502;9.752;2024-01-16T01:49:02;10.05;;;4.28;;
1545;SDS011;766;51.502;9.752;2024-01-16T01:51:33;6.50;;;4.28;;
1545;SDS011;766;51.502;9.752;2024-01-16T01:54:01;10.48;;;4.30;;
1545;SDS011;766;51.502;9.752;2024-01-16T01:56:31;8.25;;;3.75;;
1545;SDS011;766;51.502;9.752;2024-01-16T01:58:59;9.88;;;4.72;;
1545;SDS011;766;51.502;9.752;2024-01-16T02:01:29;10.13;;;4.60;;
1545;SDS011;766;51.502;9.752;2024-01-16T02:04:01;7.63;;;3.95;;
1545;SDS011;766;51.502;9.752;2024-01-16T02:06:30;10.48;;;4.82;;
1545;SDS011;766;51.502;9.752;2024-01-16T02:08:58;8.95;;;4.32;;
1545;SDS011;766;51.502;9.752;2024-01-16T02:11:26;7.47;;;4.22;;
1545;SDS011;766;51.502;9.752;2024-01-16T02:13:56;11.50;;;4.70;;
1545;SDS011;766;51.502;9.752;2024-01-16T02:16:24;9.63;;;4.57;;
1545;SDS011;766;51.502;9.752;2024-01-16T02:18:53;8.82;;;4.50;;
1545;SDS011;766;51.502;9.752;2024-01-16T02:21:25;8.77;;;5.05;;
1545;SDS011;766;51.502;9.752;2024-01-16T02:23:57;6.30;;;4.53;;
1545;SDS011;766;51.502;9.752;2024-01-16T02:26:25;8.23;;;4.18;;
1545;SDS011;766;51.502;9.752;2024-01-16T02:28:53;15.77;;;3.92;;
1545;SDS011;766;51.502;9.752;2024-01-16T02:31:22;13.50;;;4.32;;
1545;SDS011;766;51.502;9.752;2024-01-16T02:33:51;9.45;;;4.18;;
1545;SDS011;766;51.502;9.752;2024-01-16T02:36:19;12.75;;;4.82;;
1545;SDS011;766;51.502;9.752;2024-01-16T02:38:47;8.10;;;4.40;;
1545;SDS011;766;51.502;9.752;2024-01-16T02:41:18;10.05;;;4.63;;
1545;SDS011;766;51.502;9.752;2024-01-16T02:43:47;14.98;;;4.90;;
1545;SDS011;766;51.502;9.752;2024-01-16T02:46:15;7.90;;;4.63;;
1545;SDS011;766;51.502;9.752;2024-01-16T02:48:44;9.30;;;4.35;;
1545;SDS011;766;51.502;9.752;2024-01-16T02:51:13;14.77;;;4.88;;
1545;SDS011;766;51.502;9.752;2024-01-16T02:53:42;12.55;;;4.97;;
1545;SDS011;766;51.502;9.752;2024-01-16T02:56:10;10.32;;;4.45;;
1545;SDS011;766;51.502;9.752;2024-01-16T02:58:43;15.60;;;4.60;;
1545;SDS011;766;51.502;9.752;2024-01-16T03:01:14;14.35;;;4.82;;
1545;SDS011;766;51.502;9.752;2024-01-16T03:03:43;11.05;;;4.18;;
1545;SDS011;766;51.502;9.752;2024-01-16T03:06:20;15.30;;;4.05;;
1545;SDS011;766;51.502;9.752;2024-01-16T03:08:49;5.35;;;3.75;;
1545;SDS011;766;51.502;9.752;2024-01-16T03:11:18;14.25;;;4.32;;
1545;SDS011;766;51.502;9.752;2024-01-16T03:13:48;10.52;;;4.55;;
1545;SDS011;766;51.502;9.752;2024-01-16T03:16:19;17.08;;;4.03;;
1545;SDS011;766;51.502;9.752;2024-01-16T03:18:47;9.38;;;3.78;;
1545;SDS011;766;51.502;9.752;2024-01-16T03:21:15;8.02;;;3.75;;
1545;SDS011;766;51.502;9.752;2024-01-16T03:23:43;12.80;;;3.75;;
1545;SDS011;766;51.502;9.752;2024-01-16T03:26:12;14.48;;;4.32;;
1545;SDS011;766;51.502;9.752;2024-01-16T03:28:41;13.30;;;4.40;;
1545;SDS011;766;51.502;9.752;2024-01-16T03:31:11;8.02;;;3.65;;
1545;SDS011;766;51.502;9.752;2024-01-16T03:33:40;10.82;;;4.15;;
1545;SDS011;766;51.502;9.752;2024-01-16T03:36:10;8.60;;;4.03;;
1545;SDS011;766;51.502;9.752;2024-01-16T03:38:40;13.18;;;4.20;;
1545;SDS011;766;51.502;9.752;2024-01-16T03:41:11;7.22;;;3.40;;
1545;SDS011;766;51.502;9.752;2024-01-16T03:43:39;11.68;;;4.57;;
1545;SDS011;766;51.502;9.752;2024-01-16T03:46:10;9.57;;;4.18;;
1545;SDS011;766;51.502;9.752;2024-01-16T03:48:39;8.30;;;4.40;;
1545;SDS011;766;51.502;9.752;2024-01-16T03:51:08;13.50;;;4.93;;
1545;SDS011;766;51.502;9.752;2024-01-16T03:53:36;10.25;;;4.47;;
1545;SDS011;766;51.502;9.752;2024-01-16T03:56:05;12.98;;;4.95;;
1545;SDS011;766;51.502;9.752;2024-01-16T03:58:34;13.93;;;5.10;;
1545;SDS011;766;51.502;9.752;2024-01-16T04:01:02;16.92;;;6.30;;
1545;SDS011;766;51.502;9.752;2024-01-16T04:03:32;12.52;;;6.30;;
1545;SDS011;766;51.502;9.752;2024-01-16T04:06:01;13.68;;;5.90;;
1545;SDS011;766;51.502;9.752;2024-01-16T04:08:29;14.13;;;6.28;;
1545;SDS011;766;51.502;9.752;2024-01-16T04:10:58;17.63;;;6.20;;
1545;SDS011;766;51.502;9.752;2024-01-16T04:13:26;14.48;;;6.25;;
1545;SDS011;766;51.502;9.752;2024-01-16T04:15:54;18.03;;;5.90;;
1545;SDS011;766;51.502;9.752;2024-01-16T04:18:22;14.80;;;5.68;;
1545;SDS011;766;51.502;9.752;2024-01-16T04:20:52;11.48;;;5.57;;
1545;SDS011;766;51.502;9.752;2024-01-16T04:23:20;13.68;;;5.15;;
1545;SDS011;766;51.502;9.752;2024-01-16T04:25:49;10.00;;;5.03;;
1545;SDS011;766;51.502;9.752;2024-01-16T04:28:17;16.42;;;5.75;;
1545;SDS011;766;51.502;9.752;2024-01-16T04:30:46;16.65;;;6.60;;
1545;SDS011;766;51.502;9.752;2024-01-16T04:33:14;12.87;;;5.60;;
1545;SDS011;766;51.502;9.752;2024-01-16T04:35:42;18.98;;;6.45;;
1545;SDS011;766;51.502;9.752;2024-01-16T04:38:12;11.90;;;4.85;;
1545;SDS011;766;51.502;9.752;2024-01-16T04:40:40;15.93;;;5.53;;
1545;SDS011;766;51.502;9.752;2024-01-16T04:43:09;12.13;;;4.95;;
1545;SDS011;766;51.502;9.752;2024-01-16T04:45:37;11.52;;;5.53;;
1545;SDS011;766;51.502;9.752;2024-01-16T04:48:06;13.25;;;5.28;;
1545;SDS011;766;51.502;9.752;2024-01-16T04:50:35;12.88;;;4.88;;
1545;SDS011;766;51.502;9.752;2024-01-16T04:53:03;14.90;;;5.27;;
1545;SDS011;766;51.502;9.752;2024-01-16T04:55:33;12.57;;;4.57;;
1545;SDS011;766;51.502;9.752;2024-01-16T04:58:01;10.77;;;4.75;;
1545;SDS011;766;51.502;9.752;2024-01-16T05:00:30;10.65;;;4.53;;
1545;SDS011;766;51.502;9.752;2024-01-16T05:02:58;11.27;;;4.72;;
1545;SDS011;766;51.502;9.752;2024-01-16T05:05:27;15.48;;;5.32;;
1545;SDS011;766;51.502;9.752;2024-01-16T05:07:55;11.57;;;4.78;;
1545;SDS011;766;51.502;9.752;2024-01-16T05:10:24;12.40;;;4.95;;
1545;SDS011;766;51.502;9.752;2024-01-16T05:12:53;12.23;;;4.25;;
1545;SDS011;766;51.502;9.752;2024-01-16T05:15:21;8.45;;;3.70;;
1545;SDS011;766;51.502;9.752;2024-01-16T05:17:53;10.88;;;4.97;;
1545;SDS011;766;51.502;9.752;2024-01-16T05:20:21;14.65;;;5.07;;
1545;SDS011;766;51.502;9.752;2024-01-16T05:22:50;12.77;;;4.55;;
1545;SDS011;766;51.502;9.752;2024-01-16T05:25:18;17.17;;;4.47;;
1545;SDS011;766;51.502;9.752;2024-01-16T05:27:47;9.73;;;4.20;;
1545;SDS011;766;51.502;9.752;2024-01-16T05:30:17;12.55;;;4.32;;
1545;SDS011;766;51.502;9.752;2024-01-16T05:32:45;9.93;;;4.32;;
1545;SDS011;766;51.502;9.752;2024-01-16T05:35:14;11.52;;;4.50;;
1545;SDS011;766;51.502;9.752;2024-01-16T05:37:42;10.90;;;4.05;;
1545;SDS011;766;51.502;9.752;2024-01-16T05:40:11;11.77;;;4.80;;
1545;SDS011;766;51.502;9.752;2024-01-16T05:42:39;11.05;;;4.32;;
1545;SDS011;766;51.502;9.752;2024-01-16T05:45:07;11.18;;;4.38;;
1545;SDS011;766;51.502;9.752;2024-01-16T05:47:37;9.50;;;3.75;;
1545;SDS011;766;51.502;9.752;2024-01-16T05:50:06;14.40;;;4.90;;
1545;SDS011;766;51.502;9.752;2024-01-16T05:52:36;17.58;;;5.10;;
1545;SDS011;766;51.502;9.752;2024-01-16T05:55:07;10.68;;;4.78;;
1545;SDS011;766;51.502;9.752;2024-01-16T05:57:35;15.33;;;5.90;;
1545;SDS011;766;51.502;9.752;2024-01-16T06:00:04;13.07;;;4.75;;
1545;SDS011;766;51.502;9.752;2024-01-16T06:02:33;8.82;;;3.85;;
1545;SDS011;766;51.502;9.752;2024-01-16T06:05:03;11.10;;;4.13;;
1545;SDS011;766;51.502;9.752;2024-01-16T06:07:32;9.68;;;3.55;;
1545;SDS011;766;51.502;9.752;2024-01-16T06:10:00;12.43;;;3.45;;
1545;SDS011;766;51.502;9.752;2024-01-16T06:12:31;6.88;;;3.60;;
1545;SDS011;766;51.502;9.752;2024-01-16T06:15:00;13.15;;;3.65;;
1545;SDS011;766;51.502;9.752;2024-01-16T06:17:28;10.30;;;4.05;;
1545;SDS011;766;51.502;9.752;2024-01-16T06:19:56;13.57;;;4.57;;
1545;SDS011;766;51.502;9.752;2024-01-16T06:22:26;10.98;;;3.42;;
1545;SDS011;766;51.502;9.752;2024-01-16T06:24:54;8.77;;;3.55;;
1545;SDS011;766;51.502;9.752;2024-01-16T06:27:22;7.47;;;3.78;;
1545;SDS011;766;51.502;9.752;2024-01-16T06:29:50;6.25;;;3.75;;
1545;SDS011;766;51.502;9.752;2024-01-16T06:32:18;10.90;;;3.67;;
1545;SDS011;766;51.502;9.752;2024-01-16T06:34:47;9.20;;;4.22;;
1545;SDS011;766;51.502;9.752;2024-01-16T06:37:15;10.27;;;3.97;;
1545;SDS011;766;51.502;9.752;2024-01-16T06:39:45;13.02;;;3.92;;
1545;SDS011;766;51.502;9.752;2024-01-16T06:42:14;9.35;;;3.92;;
1545;SDS011;766;51.502;9.752;2024-01-16T06:44:42;7.65;;;3.90;;
1545;SDS011;766;51.502;9.752;2024-01-16T06:47:10;8.60;;;4.20;;
1545;SDS011;766;51.502;9.752;2024-01-16T06:49:38;9.07;;;3.80;;
1545;SDS011;766;51.502;9.752;2024-01-16T06:52:06;10.23;;;4.15;;
1545;SDS011;766;51.502;9.752;2024-01-16T06:54:35;7.65;;;4.40;;
1545;SDS011;766;51.502;9.752;2024-01-16T06:57:05;12.52;;;4.70;;
1545;SDS011;766;51.502;9.752;2024-01-16T06:59:33;11.98;;;4.45;;
1545;SDS011;766;51.502;9.752;2024-01-16T07:02:01;12.50;;;3.83;;
1545;SDS011;766;51.502;9.752;2024-01-16T07:04:29;11.55;;;4.13;;
1545;SDS011;766;51.502;9.752;2024-01-16T07:06:58;13.45;;;4.40;;
1545;SDS011;766;51.502;9.752;2024-01-16T07:09:27;8.10;;;3.95;;
1545;SDS011;766;51.502;9.752;2024-01-16T07:11:55;16.25;;;4.55;;
1545;SDS011;766;51.502;9.752;2024-01-16T07:14:28;10.02;;;3.95;;
1545;SDS011;766;51.502;9.752;2024-01-16T07:16:56;9.60;;;4.72;;
1545;SDS011;766;51.502;9.752;2024-01-16T07:19:24;11.60;;;4.22;;
1545;SDS011;766;51.502;9.752;2024-01-16T07:21:52;11.18;;;3.78;;
1545;SDS011;766;51.502;9.752;2024-01-16T07:24:21;17.63;;;4.40;;
1545;SDS011;766;51.502;9.752;2024-01-16T07:26:49;11.77;;;4.53;;
1545;SDS011;766;51.502;9.752;2024-01-16T07:29:18;14.48;;;4.47;;
1545;SDS011;766;51.502;9.752;2024-01-16T07:31:47;7.45;;;4.10;;
1545;SDS011;766;51.502;9.752;2024-01-16T07:34:15;11.77;;;4.22;;
1545;SDS011;766;51.502;9.752;2024-01-16T07:36:48;11.10;;;4.90;;
1545;SDS011;766;51.502;9.752;2024-01-16T07:39:16;13.30;;;4.85;;
1545;SDS011;766;51.502;9.752;2024-01-16T07:41:44;10.10;;;4.70;;
1545;SDS011;766;51.502;9.752;2024-01-16T07:44:12;12.45;;;4.50;;
1545;SDS011;766;51.502;9.752;2024-01-16T07:46:41;14.05;;;4.60;;
1545;SDS011;766;51.502;9.752;2024-01-16T07:49:10;13.30;;;5.55;;
1545;SDS011;766;51.502;9.752;2024-01-16T07:51:38;13.53;;;4.10;;
1545;SDS011;766;51.502;9.752;2024-01-16T07:54:07;11.05;;;5.13;;
1545;SDS011;766;51.502;9.752;2024-01-16T07:56:36;11.85;;;3.97;;
1545;SDS011;766;51.502;9.752;2024-01-16T07:59:05;12.30;;;4.22;;
1545;SDS011;766;51.502;9.752;2024-01-16T08:01:33;12.75;;;4.47;;
1545;SDS011;766;51.502;9.752;2024-01-16T08:04:02;10.90;;;4.20;;
1545;SDS011;766;51.502;9.752;2024-01-16T08:06:32;11.63;;;4.30;;
1545;SDS011;766;51.502;9.752;2024-01-16T08:09:01;9.82;;;4.63;;
1545;SDS011;766;51.502;9.752;2024-01-16T08:11:29;19.50;;;4.38;;
1545;SDS011;766;51.502;9.752;2024-01-16T08:13:58;15.60;;;4.80;;
1545;SDS011;766;51.502;9.752;2024-01-16T08:16:26;11.85;;;4.32;;
1545;SDS011;766;51.502;9.752;2024-01-16T08:18:54;10.55;;;4.25;;
1545;SDS011;766;51.502;9.752;2024-01-16T08:21:23;13.63;;;4.43;;
1545;SDS011;766;51.502;9.752;2024-01-16T08:23:52;18.75;;;4.80;;
1545;SDS011;766;51.502;9.752;2024-01-16T08:26:20;11.30;;;4.13;;
1545;SDS011;766;51.502;9.752;2024-01-16T08:28:48;16.08;;;4.65;;
1545;SDS011;766;51.502;9.752;2024-01-16T08:31:17;14.85;;;3.80;;
1545;SDS011;766;51.502;9.752;2024-01-16T08:33:45;13.37;;;4.60;;
1545;SDS011;766;51.502;9.752;2024-01-16T08:36:18;10.88;;;3.50;;
1545;SDS011;766;51.502;9.752;2024-01-16T08:38:47;8.50;;;4.47;;
1545;SDS011;766;51.502;9.752;2024-01-16T08:41:16;10.07;;;4.07;;
1545;SDS011;766;51.502;9.752;2024-01-16T08:43:44;11.00;;;3.50;;
1545;SDS011;766;51.502;9.752;2024-01-16T08:46:13;10.75;;;3.97;;
1545;SDS011;766;51.502;9.752;2024-01-16T08:48:41;5.80;;;3.15;;
1545;SDS011;766;51.502;9.752;2024-01-16T08:51:10;9.60;;;3.47;;
1545;SDS011;766;51.502;9.752;2024-01-16T08:53:40;12.93;;;3.72;;
1545;SDS011;766;51.502;9.752;2024-01-16T08:56:08;9.07;;;3.60;;
1545;SDS011;766;51.502;9.752;2024-01-16T08:58:40;11.07;;;3.20;;
1545;SDS011;766;51.502;9.752;2024-01-16T09:01:08;11.50;;;3.30;;
1545;SDS011;766;51.502;9.752;2024-01-16T09:03:37;11.70;;;3.15;;
1545;SDS011;766;51.502;9.752;2024-01-16T09:06:05;5.57;;;2.93;;
1545;SDS011;766;51.502;9.752;2024-01-16T09:08:33;6.50;;;3.03;;
1545;SDS011;766;51.502;9.752;2024-01-16T09:11:01;9.45;;;2.85;;
1545;SDS011;766;51.502;9.752;2024-01-16T09:13:30;13.60;;;3.30;;
1545;SDS011;766;51.502;9.752;2024-01-16T09:15:59;9.57;;;2.75;;
1545;SDS011;766;51.502;9.752;2024-01-16T09:18:27;5.05;;;2.83;;
1545;SDS011;766;51.502;9.752;2024-01-16T09:20:56;8.30;;;3.05;;
1545;SDS011;766;51.502;9.752;2024-01-16T09:23:26;10.83;;;3.50;;
1545;SDS011;766;51.502;9.752;2024-01-16T09:25:55;11.93;;;2.92;;
1545;SDS011;766;51.502;9.752;2024-01-16T09:28:23;6.77;;;3.17;;
1545;SDS011;766;51.502;9.752;2024-01-16T09:30:51;9.73;;;3.55;;
1545;SDS011;766;51.502;9.752;2024-01-16T09:33:24;7.83;;;3.00;;
1545;SDS011;766;51.502;9.752;2024-01-16T09:35:53;7.97;;;2.97;;
1545;SDS011;766;51.502;9.752;2024-01-16T09:38:24;8.32;;;3.38;;
1545;SDS011;766;51.502;9.752;2024-01-16T09:40:56;10.07;;;3.23;;
1545;SDS011;766;51.502;9.752;2024-01-16T09:43:26;6.63;;;3.20;;
1545;SDS011;766;51.502;9.752;2024-01-16T09:45:55;7.37;;;2.97;;
1545;SDS011;766;51.502;9.752;2024-01-16T09:48:30;15.50;;;2.95;;
1545;SDS011;766;51.502;9.752;2024-01-16T09:50:59;7.27;;;3.13;;
1545;SDS011;766;51.502;9.752;2024-01-16T09:53:28;13.23;;;3.27;;
1545;SDS011;766;51.502;9.752;2024-01-16T09:55:57;8.93;;;3.67;;
1545;SDS011;766;51.502;9.752;2024-01-16T09:58:29;8.83;;;3.87;;
1545;SDS011;766;51.502;9.752;2024-01-16T10:01:01;6.00;;;3.00;;
1545;SDS011;766;51.502;9.752;2024-01-16T10:03:31;11.77;;;3.57;;
1545;SDS011;766;51.502;9.752;2024-01-16T10:06:01;10.80;;;3.33;;
1545;SDS011;766;51.502;9.752;2024-01-16T10:08:33;7.70;;;3.17;;
1545;SDS011;766;51.502;9.752;2024-01-16T10:11:02;8.13;;;3.70;;
1545;SDS011;766;51.502;9.752;2024-01-16T10:13:30;10.30;;;3.70;;
1545;SDS011;766;51.502;9.752;2024-01-16T10:16:00;9.45;;;3.55;;
1545;SDS011;766;51.502;9.752;2024-01-16T10:18:37;9.43;;;3.70;;
1545;SDS011;766;51.502;9.752;2024-01-16T10:21:06;9.60;;;3.65;;
1545;SDS011;766;51.502;9.752;2024-01-16T10:23:49;8.00;;;3.20;;
1545;SDS011;766;51.502;9.752;2024-01-16T10:26:17;11.25;;;3.53;;
1545;SDS011;766;51.502;9.752;2024-01-16T10:28:45;13.93;;;4.00;;
1545;SDS011;766;51.502;9.752;2024-01-16T10:31:14;12.27;;;3.93;;
1545;SDS011;766;51.502;9.752;2024-01-16T10:33:44;9.82;;;3.53;;
1545;SDS011;766;51.502;9.752;2024-01-16T10:36:18;13.45;;;4.38;;
1545;SDS011;766;51.502;9.752;2024-01-16T10:39:02;7.10;;;3.92;;
1545;SDS011;766;51.502;9.752;2024-01-16T10:41:38;9.23;;;3.63;;
1545;SDS011;766;51.502;9.752;2024-01-16T10:44:07;8.33;;;3.93;;
1545;SDS011;766;51.502;9.752;2024-01-16T10:46:36;9.53;;;4.30;;
1545;SDS011;766;51.502;9.752;2024-01-16T10:49:06;11.15;;;3.70;;
1545;SDS011;766;51.502;9.752;2024-01-16T10:51:43;7.87;;;3.53;;
1545;SDS011;766;51.502;9.752;2024-01-16T10:54:12;8.15;;;3.63;;
1545;SDS011;766;51.502;9.752;2024-01-16T10:56:43;12.32;;;3.97;;
1545;SDS011;766;51.502;9.752;2024-01-16T10:59:16;11.68;;;3.88;;
1545;SDS011;766;51.502;9.752;2024-01-16T11:01:49;6.50;;;3.55;;
1545;SDS011;766;51.502;9.752;2024-01-16T11:04:25;9.80;;;4.07;;
1545;SDS011;766;51.502;9.752;2024-01-16T11:06:55;5.65;;;3.80;;
1545;SDS011;766;51.502;9.752;2024-01-16T11:09:24;4.72;;;3.28;;
1545;SDS011;766;51.502;9.752;2024-01-16T11:11:54;8.40;;;3.90;;
1545;SDS011;766;51.502;9.752;2024-01-16T11:14:24;4.85;;;3.17;;
1545;SDS011;766;51.502;9.752;2024-01-16T11:16:55;6.05;;;3.03;;
1545;SDS011;766;51.502;9.752;2024-01-16T11:19:25;8.60;;;4.20;;
1545;SDS011;766;51.502;9.752;2024-01-16T11:22:14;14.45;;;3.28;;
1545;SDS011;766;51.502;9.752;2024-01-16T11:24:43;6.20;;;2.80;;
1545;SDS011;766;51.502;9.752;2024-01-16T11:27:21;7.72;;;3.38;;
1545;SDS011;766;51.502;9.752;2024-01-16T11:29:50;6.97;;;2.67;;
1545;SDS011;766;51.502;9.752;2024-01-16T11:32:32;3.67;;;2.20;;
1545;SDS011;766;51.502;9.752;2024-01-16T11:35:06;8.32;;;2.53;;
1545;SDS011;766;51.502;9.752;2024-01-16T11:37:35;8.75;;;2.53;;
1545;SDS011;766;51.502;9.752;2024-01-16T11:40:25;8.40;;;3.13;;
1545;SDS011;766;51.502;9.752;2024-01-16T11:42:55;11.30;;;2.58;;
1545;SDS011;766;51.502;9.752;2024-01-16T11:48:21;4.28;;;2.03;;
1545;SDS011;766;51.502;9.752;2024-01-16T11:50:50;8.80;;;2.60;;
1545;SDS011;766;51.502;9.752;2024-01-16T11:53:35;8.88;;;2.13;;
1545;SDS011;766;51.502;9.752;2024-01-16T11:59:18;11.43;;;1.92;;
1545;SDS011;766;51.502;9.752;2024-01-16T12:02:09;8.88;;;1.85;;
1545;SDS011;766;51.502;9.752;2024-01-16T12:04:42;6.35;;;2.00;;
1545;SDS011;766;51.502;9.752;2024-01-16T12:07:11;9.70;;;2.20;;
1545;SDS011;766;51.502;9.752;2024-01-16T12:09:40;3.17;;;1.70;;
1545;SDS011;766;51.502;9.752;2024-01-16T12:12:08;8.57;;;1.85;;
1545;SDS011;766;51.502;9.752;2024-01-16T12:14:36;5.70;;;2.30;;
1545;SDS011;766;51.502;9.752;2024-01-16T12:17:08;7.35;;;1.60;;
1545;SDS011;766;51.502;9.752;2024-01-16T12:19:37;8.60;;;2.28;;
1545;SDS011;766;51.502;9.752;2024-01-16T12:22:09;9.30;;;2.05;;
1545;SDS011;766;51.502;9.752;2024-01-16T12:24:39;7.40;;;2.55;;
1545;SDS011;766;51.502;9.752;2024-01-16T12:27:08;8.73;;;2.25;;
1545;SDS011;766;51.502;9.752;2024-01-16T12:29:36;6.60;;;2.40;;
1545;SDS011;766;51.502;9.752;2024-01-16T12:32:07;8.75;;;1.88;;
1545;SDS011;766;51.502;9.752;2024-01-16T12:34:43;6.65;;;2.03;;
1545;SDS011;766;51.502;9.752;2024-01-16T12:37:13;4.68;;;1.90;;
1545;SDS011;766;51.502;9.752;2024-01-16T12:39:43;7.05;;;1.50;;
1545;SDS011;766;51.502;9.752;2024-01-16T12:42:11;12.32;;;2.05;;
1545;SDS011;766;51.502;9.752;2024-01-16T12:44:40;6.95;;;1.73;;
1545;SDS011;766;51.502;9.752;2024-01-16T12:47:09;6.93;;;2.10;;
1545;SDS011;766;51.502;9.752;2024-01-16T12:49:39;6.50;;;1.75;;
1545;SDS011;766;51.502;9.752;2024-01-16T12:52:18;5.55;;;2.47;;
1545;SDS011;766;51.502;9.752;2024-01-16T12:54:56;6.30;;;1.70;;
1545;SDS011;766;51.502;9.752;2024-01-16T12:57:26;7.45;;;1.83;;
1545;SDS011;766;51.502;9.752;2024-01-16T12:59:55;9.35;;;1.70;;
1545;SDS011;766;51.502;9.752;2024-01-16T13:02:27;8.00;;;2.00;;
1545;SDS011;766;51.502;9.752;2024-01-16T13:04:57;6.28;;;2.05;;
1545;SDS011;766;51.502;9.752;2024-01-16T13:07:26;8.77;;;2.35;;
1545;SDS011;766;51.502;9.752;2024-01-16T13:10:11;7.45;;;1.80;;
1545;SDS011;766;51.502;9.752;2024-01-16T13:12:42;5.63;;;1.67;;
1545;SDS011;766;51.502;9.752;2024-01-16T13:15:11;8.50;;;1.90;;
1545;SDS011;766;51.502;9.752;2024-01-16T13:17:43;9.40;;;2.30;;
1545;SDS011;766;51.502;9.752;2024-01-16T13:20:11;6.53;;;1.90;;
1545;SDS011;766;51.502;9.752;2024-01-16T13:22:41;8.60;;;2.38;;
1545;SDS011;766;51.502;9.752;2024-01-16T13:25:15;11.95;;;2.50;;
1545;SDS011;766;51.502;9.752;2024-01-16T13:27:43;6.10;;;2.05;;
1545;SDS011;766;51.502;9.752;2024-01-16T13:30:12;7.30;;;2.08;;
1545;SDS011;766;51.502;9.752;2024-01-16T13:32:41;7.28;;;2.20;;
1545;SDS011;766;51.502;9.752;2024-01-16T13:35:09;6.75;;;2.30;;
1545;SDS011;766;51.502;9.752;2024-01-16T13:37:38;9.90;;;2.03;;
1545;SDS011;766;51.502;9.752;2024-01-16T13:40:08;10.00;;;2.20;;
1545;SDS011;766;51.502;9.752;2024-01-16T13:42:46;5.03;;;1.92;;
1545;SDS011;766;51.502;9.752;2024-01-16T13:45:14;5.68;;;2.08;;
1545;SDS011;766;51.502;9.752;2024-01-16T13:47:44;6.30;;;2.08;;
1545;SDS011;766;51.502;9.752;2024-01-16T13:50:13;11.68;;;2.42;;
1545;SDS011;766;51.502;9.752;2024-01-16T13:52:41;3.92;;;1.63;;
1545;SDS011;766;51.502;9.752;2024-01-16T13:55:09;5.38;;;2.10;;
1545;SDS011;766;51.502;9.752;2024-01-16T13:57:38;8.90;;;2.17;;
1545;SDS011;766;51.502;9.752;2024-01-16T14:00:08;8.32;;;2.83;;
1545;SDS011;766;51.502;9.752;2024-01-16T14:02:39;4.68;;;1.63;;
1545;SDS011;766;51.502;9.752;2024-01-16T14:05:08;8.45;;;2.00;;
1545;SDS011;766;51.502;9.752;2024-01-16T14:07:37;6.55;;;1.98;;
1545;SDS011;766;51.502;9.752;2024-01-16T14:10:07;6.40;;;1.80;;
1545;SDS011;766;51.502;9.752;2024-01-16T14:12:38;3.60;;;1.83;;
1545;SDS011;766;51.502;9.752;2024-01-16T14:15:10;9.32;;;2.33;;
1545;SDS011;766;51.502;9.752;2024-01-16T14:17:45;6.60;;;2.53;;
1545;SDS011;766;51.502;9.752;2024-01-16T14:20:15;6.60;;;2.30;;
1545;SDS011;766;51.502;9.752;2024-01-16T14:22:47;6.32;;;2.22;;
1545;SDS011;766;51.502;9.752;2024-01-16T14:25:15;4.70;;;1.77;;
1545;SDS011;766;51.502;9.752;2024-01-16T14:27:45;5.32;;;2.10;;
1545;SDS011;766;51.502;9.752;2024-01-16T14:30:20;5.20;;;1.70;;
1545;SDS011;766;51.502;9.752;2024-01-16T14:32:48;3.92;;;1.80;;
1545;SDS011;766;51.502;9.752;2024-01-16T14:35:17;9.07;;;2.50;;
1545;SDS011;766;51.502;9.752;2024-01-16T14:37:46;2.07;;;1.37;;
1545;SDS011;766;51.502;9.752;2024-01-16T14:40:14;2.93;;;1.40;;
1545;SDS011;766;51.502;9.752;2024-01-16T14:42:46;2.90;;;1.67;;
1545;SDS011;766;51.502;9.752;2024-01-16T14:45:15;4.20;;;1.70;;
1545;SDS011;766;51.502;9.752;2024-01-16T14:47:45;7.32;;;1.55;;
1545;SDS011;766;51.502;9.752;2024-01-16T14:50:15;3.38;;;1.42;;
1545;SDS011;766;51.502;9.752;2024-01-16T14:52:44;4.78;;;2.30;;
1545;SDS011;766;51.502;9.752;2024-01-16T14:55:17;3.25;;;1.45;;
1545;SDS011;766;51.502;9.752;2024-01-16T14:57:46;5.22;;;1.92;;
1545;SDS011;766;51.502;9.752;2024-01-16T15:00:19;8.65;;;1.85;;
1545;SDS011;766;51.502;9.752;2024-01-16T15:02:51;7.90;;;1.90;;
1545;SDS011;766;51.502;9.752;2024-01-16T15:05:20;3.83;;;1.70;;
1545;SDS011;766;51.502;9.752;2024-01-16T15:07:49;6.72;;;1.52;;
1545;SDS011;766;51.502;9.752;2024-01-16T15:10:19;2.95;;;1.42;;
1545;SDS011;766;51.502;9.752;2024-01-16T15:12:48;7.18;;;1.52;;
1545;SDS011;766;51.502;9.752;2024-01-16T15:15:17;8.63;;;1.40;;
1545;SDS011;766;51.502;9.752;2024-01-16T15:17:45;3.72;;;1.25;;
1545;SDS011;766;51.502;9.752;2024-01-16T15:20:16;6.82;;;1.42;;
1545;SDS011;766;51.502;9.752;2024-01-16T15:22:45;3.43;;;1.20;;
1545;SDS011;766;51.502;9.752;2024-01-16T15:25:15;5.30;;;1.45;;
1545;SDS011;766;51.502;9.752;2024-01-16T15:27:47;4.63;;;1.27;;
1545;SDS011;766;51.502;9.752;2024-01-16T15:30:19;4.53;;;1.73;;
1545;SDS011;766;51.502;9.752;2024-01-16T15:32:49;4.30;;;1.48;;
1545;SDS011;766;51.502;9.752;2024-01-16T15:35:18;6.95;;;1.20;;
1545;SDS011;766;51.502;9.752;2024-01-16T15:37:52;4.50;;;1.48;;
1545;SDS011;766;51.502;9.752;2024-01-16T15:40:21;4.75;;;1.60;;
1545;SDS011;766;51.502;9.752;2024-01-16T15:42:49;3.45;;;1.27;;
1545;SDS011;766;51.502;9.752;2024-01-16T15:45:18;3.28;;;1.10;;